Terminal Aerodrome Forecast
Issued by NWS

Home | Current Version | Previous Version | Text Only | Print | Product List | Glossary On
Versions: 1 2 3 4 5 6 7 8 9 10 11 12 13 14 15 16 17
000
FTUS43 KTOP 010500
TAFMHK
TAF
KMHK 010526Z 0106/0206 13010KT 4SM -RA BR OVC008
     FM010800 13006KT 3SM -RASN BR OVC006
     FM011000 34013G24KT 3SM -SN BR OVC007
     FM011700 35024G32KT 4SM -SN BR OVC008
     FM012100 35022G30KT P6SM OVC014
     FM020100 35013G21KT P6SM OVC018=

USA.gov is the U.S. government's official web portal to all federal, state and local government web resources and services.